This is the latest recevied weather packets stored in our database for station/object EA1RCG-11. If no packets are shown the sender has not sent any weather packets the latest 1 day(s).
| Time | Temp. | Humidity | Pressure | Rain* | Wind** | Luminosity | Snow |
|---|---|---|---|---|---|---|---|
| 1777748665 | 16.67° C | 63% | 977.9 hPa | - | - | - | - |
| 1777746864 | 17.22° C | 62% | 977.8 hPa | - | - | - | - |
| 1777745064 | 17.78° C | 61% | 977.6 hPa | - | - | - | - |
| 1777743264 | 18.89° C | 60% | 977.6 hPa | - | - | - | - |
| 1777741464 | 18.89° C | 61% | 977.8 hPa | - | - | - | - |
| 1777739664 | 20.56° C | 58% | 977.9 hPa | - | - | - | - |
| 1777737864 | 19.44° C | 60% | 977.7 hPa | - | - | - | - |
| 1777736064 | 19.44° C | 59% | 978.1 hPa | - | - | - | - |
| 1777734264 | 21.67° C | 57% | 978.2 hPa | - | - | - | - |
| 1777732464 | 20.56° C | 58% | 978.6 hPa | - | - | - | - |
| 1777730664 | 21.67° C | 56% | 978.1 hPa | - | - | - | - |
| 1777728864 | 20° C | 59% | 977.5 hPa | - | - | - | - |
| 1777727063 | 18.89° C | 62% | 978.5 hPa | - | - | - | - |
| 1777725263 | 22.22° C | 57% | 977.9 hPa | - | - | - | - |
| 1777723463 | 22.22° C | 56% | 978.2 hPa | - | - | - | - |
| 1777721663 | 20° C | 61% | 978.5 hPa | - | - | - | - |
| 1777719863 | 21.11° C | 60% | 979.2 hPa | - | - | - | - |
| 1777718063 | 23.89° C | 57% | 978.7 hPa | - | - | - | - |
| 1777716263 | 37.78° C | 38% | 978.6 hPa | - | - | - | - |
| 1777714463 | 41.11° C | 35% | 979.3 hPa | - | - | - | - |
| 1777712663 | 26.11° C | 50% | 979.4 hPa | - | - | - | - |
| 1777710862 | 25° C | 52% | 979.2 hPa | - | - | - | - |
| 1777709062 | 36.67° C | 37% | 979.3 hPa | - | - | - | - |
* Rain since midnight (hover to see other rain measurements)
** Current wind speed in m/s (hover to see current wind gust speed)